sensor_id;sensor_type;location;lat;lon;timestamp;temperature;humidity
16271;DHT22;8243;49.048;8.396;2023-02-15T00:01:31;1.20;99.90
16271;DHT22;8243;49.048;8.396;2023-02-15T00:03:57;1.10;99.90
16271;DHT22;8243;49.048;8.396;2023-02-15T00:06:23;0.90;99.90
16271;DHT22;8243;49.048;8.396;2023-02-15T00:08:48;0.80;99.90
16271;DHT22;8243;49.048;8.396;2023-02-15T00:11:16;0.70;99.90
16271;DHT22;8243;49.048;8.396;2023-02-15T00:13:42;0.80;99.90
16271;DHT22;8243;49.048;8.396;2023-02-15T00:16:10;0.80;99.90
16271;DHT22;8243;49.048;8.396;2023-02-15T00:18:37;1.10;99.90
16271;DHT22;8243;49.048;8.396;2023-02-15T00:21:08;1.00;99.90
16271;DHT22;8243;49.048;8.396;2023-02-15T00:23:34;1.10;99.90
16271;DHT22;8243;49.048;8.396;2023-02-15T00:26:07;1.10;99.90
16271;DHT22;8243;49.048;8.396;2023-02-15T00:28:33;0.90;99.90
16271;DHT22;8243;49.048;8.396;2023-02-15T00:31:17;1.20;99.90
16271;DHT22;8243;49.048;8.396;2023-02-15T00:33:42;1.10;99.90
16271;DHT22;8243;49.048;8.396;2023-02-15T00:36:09;1.10;99.90
16271;DHT22;8243;49.048;8.396;2023-02-15T00:38:36;1.30;99.90
16271;DHT22;8243;49.048;8.396;2023-02-15T00:41:03;1.30;99.90
16271;DHT22;8243;49.048;8.396;2023-02-15T00:43:32;1.10;99.90
16271;DHT22;8243;49.048;8.396;2023-02-15T00:45:58;1.10;99.90
16271;DHT22;8243;49.048;8.396;2023-02-15T00:48:24;1.20;99.90
16271;DHT22;8243;49.048;8.396;2023-02-15T00:50:52;1.40;99.90
16271;DHT22;8243;49.048;8.396;2023-02-15T00:53:18;1.30;99.90
16271;DHT22;8243;49.048;8.396;2023-02-15T00:55:43;1.30;99.90
16271;DHT22;8243;49.048;8.396;2023-02-15T00:58:10;1.30;99.90
16271;DHT22;8243;49.048;8.396;2023-02-15T01:00:36;1.40;99.90
16271;DHT22;8243;49.048;8.396;2023-02-15T01:03:02;1.40;99.90
16271;DHT22;8243;49.048;8.396;2023-02-15T01:05:28;1.50;99.90
16271;DHT22;8243;49.048;8.396;2023-02-15T01:07:55;1.60;99.90
16271;DHT22;8243;49.048;8.396;2023-02-15T01:10:21;1.60;99.90
16271;DHT22;8243;49.048;8.396;2023-02-15T01:12:46;1.50;99.90
16271;DHT22;8243;49.048;8.396;2023-02-15T01:15:12;1.60;99.90
16271;DHT22;8243;49.048;8.396;2023-02-15T01:17:38;1.70;99.90
16271;DHT22;8243;49.048;8.396;2023-02-15T01:20:04;1.50;99.90
16271;DHT22;8243;49.048;8.396;2023-02-15T01:22:30;1.50;99.90
16271;DHT22;8243;49.048;8.396;2023-02-15T01:24:55;1.50;99.90
16271;DHT22;8243;49.048;8.396;2023-02-15T01:27:21;1.50;99.90
16271;DHT22;8243;49.048;8.396;2023-02-15T01:29:46;1.50;99.90
16271;DHT22;8243;49.048;8.396;2023-02-15T01:32:12;1.60;99.90
16271;DHT22;8243;49.048;8.396;2023-02-15T01:34:38;1.80;99.90
16271;DHT22;8243;49.048;8.396;2023-02-15T01:37:03;1.60;99.90
16271;DHT22;8243;49.048;8.396;2023-02-15T01:39:29;1.50;99.90
16271;DHT22;8243;49.048;8.396;2023-02-15T01:41:55;1.60;99.90
16271;DHT22;8243;49.048;8.396;2023-02-15T01:44:46;1.70;99.90
16271;DHT22;8243;49.048;8.396;2023-02-15T01:47:36;1.50;99.90
16271;DHT22;8243;49.048;8.396;2023-02-15T01:50:14;1.50;99.90
16271;DHT22;8243;49.048;8.396;2023-02-15T01:52:50;1.60;99.90
16271;DHT22;8243;49.048;8.396;2023-02-15T01:55:18;1.60;99.90
16271;DHT22;8243;49.048;8.396;2023-02-15T01:57:45;1.50;99.90
16271;DHT22;8243;49.048;8.396;2023-02-15T02:00:13;1.60;99.90
16271;DHT22;8243;49.048;8.396;2023-02-15T02:02:40;1.70;99.90
16271;DHT22;8243;49.048;8.396;2023-02-15T02:05:07;1.80;99.90
16271;DHT22;8243;49.048;8.396;2023-02-15T02:07:37;1.70;99.90
16271;DHT22;8243;49.048;8.396;2023-02-15T02:10:06;1.80;99.90
16271;DHT22;8243;49.048;8.396;2023-02-15T02:12:32;1.70;99.90
16271;DHT22;8243;49.048;8.396;2023-02-15T02:14:59;1.70;99.90
16271;DHT22;8243;49.048;8.396;2023-02-15T02:17:43;1.70;99.90
16271;DHT22;8243;49.048;8.396;2023-02-15T02:20:17;1.60;99.90
16271;DHT22;8243;49.048;8.396;2023-02-15T02:23:08;1.80;99.90
16271;DHT22;8243;49.048;8.396;2023-02-15T02:37:24;1.70;99.90
16271;DHT22;8243;49.048;8.396;2023-02-15T02:45:09;1.60;99.90
16271;DHT22;8243;49.048;8.396;2023-02-15T02:47:48;1.60;99.90
16271;DHT22;8243;49.048;8.396;2023-02-15T02:50:20;1.50;99.90
16271;DHT22;8243;49.048;8.396;2023-02-15T02:52:49;1.70;99.90
16271;DHT22;8243;49.048;8.396;2023-02-15T02:55:22;1.60;99.90
16271;DHT22;8243;49.048;8.396;2023-02-15T03:00:22;1.50;99.90
16271;DHT22;8243;49.048;8.396;2023-02-15T03:02:56;1.50;99.90
16271;DHT22;8243;49.048;8.396;2023-02-15T03:05:26;1.60;99.90
16271;DHT22;8243;49.048;8.396;2023-02-15T03:07:53;1.70;99.90
16271;DHT22;8243;49.048;8.396;2023-02-15T03:10:23;1.50;99.90
16271;DHT22;8243;49.048;8.396;2023-02-15T03:12:50;1.60;99.90
16271;DHT22;8243;49.048;8.396;2023-02-15T03:15:24;1.40;99.90
16271;DHT22;8243;49.048;8.396;2023-02-15T03:17:57;1.50;99.90
16271;DHT22;8243;49.048;8.396;2023-02-15T03:20:31;1.60;99.90
16271;DHT22;8243;49.048;8.396;2023-02-15T03:23:01;1.50;99.90
16271;DHT22;8243;49.048;8.396;2023-02-15T03:25:32;1.20;99.90
16271;DHT22;8243;49.048;8.396;2023-02-15T03:28:05;1.30;99.90
16271;DHT22;8243;49.048;8.396;2023-02-15T03:30:32;1.40;99.90
16271;DHT22;8243;49.048;8.396;2023-02-15T03:33:00;1.40;99.90
16271;DHT22;8243;49.048;8.396;2023-02-15T03:35:33;1.50;99.90
16271;DHT22;8243;49.048;8.396;2023-02-15T03:38:03;1.50;99.90
16271;DHT22;8243;49.048;8.396;2023-02-15T03:40:40;1.50;99.90
16271;DHT22;8243;49.048;8.396;2023-02-15T03:46:32;1.60;99.90
16271;DHT22;8243;49.048;8.396;2023-02-15T03:51:33;1.40;99.90
16271;DHT22;8243;49.048;8.396;2023-02-15T03:54:08;1.50;99.90
16271;DHT22;8243;49.048;8.396;2023-02-15T03:56:38;1.60;99.90
16271;DHT22;8243;49.048;8.396;2023-02-15T03:59:04;1.70;99.90
16271;DHT22;8243;49.048;8.396;2023-02-15T04:02:22;1.60;99.90
16271;DHT22;8243;49.048;8.396;2023-02-15T04:04:49;1.50;99.90
16271;DHT22;8243;49.048;8.396;2023-02-15T04:07:14;1.20;99.90
16271;DHT22;8243;49.048;8.396;2023-02-15T04:09:40;1.50;99.90
16271;DHT22;8243;49.048;8.396;2023-02-15T04:12:24;1.40;99.90
16271;DHT22;8243;49.048;8.396;2023-02-15T04:14:49;1.40;99.90
16271;DHT22;8243;49.048;8.396;2023-02-15T04:17:36;1.60;99.90
16271;DHT22;8243;49.048;8.396;2023-02-15T04:20:01;1.40;99.90
16271;DHT22;8243;49.048;8.396;2023-02-15T04:22:46;1.30;99.90
16271;DHT22;8243;49.048;8.396;2023-02-15T04:25:30;1.70;99.90
16271;DHT22;8243;49.048;8.396;2023-02-15T04:27:56;1.50;99.90
16271;DHT22;8243;49.048;8.396;2023-02-15T04:30:24;1.60;99.90
16271;DHT22;8243;49.048;8.396;2023-02-15T04:32:50;1.40;99.90
16271;DHT22;8243;49.048;8.396;2023-02-15T04:35:16;1.40;99.90
16271;DHT22;8243;49.048;8.396;2023-02-15T04:37:43;1.40;99.90
16271;DHT22;8243;49.048;8.396;2023-02-15T04:40:11;1.40;99.90
16271;DHT22;8243;49.048;8.396;2023-02-15T04:42:37;1.40;99.90
16271;DHT22;8243;49.048;8.396;2023-02-15T04:45:03;1.40;99.90
16271;DHT22;8243;49.048;8.396;2023-02-15T04:47:29;1.50;99.90
16271;DHT22;8243;49.048;8.396;2023-02-15T04:49:54;1.30;99.90
16271;DHT22;8243;49.048;8.396;2023-02-15T04:52:20;1.30;99.90
16271;DHT22;8243;49.048;8.396;2023-02-15T04:54:46;0.90;99.90
16271;DHT22;8243;49.048;8.396;2023-02-15T04:57:12;1.20;99.90
16271;DHT22;8243;49.048;8.396;2023-02-15T04:59:38;1.10;99.90
16271;DHT22;8243;49.048;8.396;2023-02-15T05:02:03;1.20;99.90
16271;DHT22;8243;49.048;8.396;2023-02-15T05:04:29;1.30;99.90
16271;DHT22;8243;49.048;8.396;2023-02-15T05:06:54;1.10;99.90
16271;DHT22;8243;49.048;8.396;2023-02-15T05:09:20;0.90;99.90
16271;DHT22;8243;49.048;8.396;2023-02-15T05:11:46;0.90;99.90
16271;DHT22;8243;49.048;8.396;2023-02-15T05:14:11;0.90;99.90
16271;DHT22;8243;49.048;8.396;2023-02-15T05:16:37;1.10;99.90
16271;DHT22;8243;49.048;8.396;2023-02-15T05:19:03;1.10;99.90
16271;DHT22;8243;49.048;8.396;2023-02-15T05:21:28;1.10;99.90
16271;DHT22;8243;49.048;8.396;2023-02-15T05:23:54;1.00;99.90
16271;DHT22;8243;49.048;8.396;2023-02-15T05:26:22;1.10;99.90
16271;DHT22;8243;49.048;8.396;2023-02-15T05:29:07;0.90;99.90
16271;DHT22;8243;49.048;8.396;2023-02-15T05:31:34;1.00;99.90
16271;DHT22;8243;49.048;8.396;2023-02-15T05:34:00;0.90;99.90
16271;DHT22;8243;49.048;8.396;2023-02-15T05:36:26;0.90;99.90
16271;DHT22;8243;49.048;8.396;2023-02-15T05:38:51;0.80;99.90
16271;DHT22;8243;49.048;8.396;2023-02-15T05:41:17;1.00;99.90
16271;DHT22;8243;49.048;8.396;2023-02-15T05:43:43;0.80;99.90
16271;DHT22;8243;49.048;8.396;2023-02-15T05:46:09;0.90;99.90
16271;DHT22;8243;49.048;8.396;2023-02-15T05:48:34;0.70;99.90
16271;DHT22;8243;49.048;8.396;2023-02-15T05:51:18;0.70;99.90
16271;DHT22;8243;49.048;8.396;2023-02-15T05:53:44;0.80;99.90
16271;DHT22;8243;49.048;8.396;2023-02-15T05:56:10;0.80;99.90
16271;DHT22;8243;49.048;8.396;2023-02-15T05:58:38;0.70;99.90
16271;DHT22;8243;49.048;8.396;2023-02-15T06:01:22;0.80;99.90
16271;DHT22;8243;49.048;8.396;2023-02-15T06:03:48;1.00;99.90
16271;DHT22;8243;49.048;8.396;2023-02-15T06:06:14;0.80;99.90
16271;DHT22;8243;49.048;8.396;2023-02-15T06:08:40;0.80;99.90
16271;DHT22;8243;49.048;8.396;2023-02-15T06:11:06;0.90;99.90
16271;DHT22;8243;49.048;8.396;2023-02-15T06:13:32;0.90;99.90
16271;DHT22;8243;49.048;8.396;2023-02-15T06:15:58;1.10;99.90
16271;DHT22;8243;49.048;8.396;2023-02-15T06:18:24;1.10;99.90
16271;DHT22;8243;49.048;8.396;2023-02-15T06:20:49;1.10;99.90
16271;DHT22;8243;49.048;8.396;2023-02-15T06:23:15;1.00;99.90
16271;DHT22;8243;49.048;8.396;2023-02-15T06:25:41;0.90;99.90
16271;DHT22;8243;49.048;8.396;2023-02-15T06:28:07;1.00;99.90
16271;DHT22;8243;49.048;8.396;2023-02-15T06:30:32;1.00;99.90
16271;DHT22;8243;49.048;8.396;2023-02-15T06:32:58;0.90;99.90
16271;DHT22;8243;49.048;8.396;2023-02-15T06:35:24;0.90;99.90
16271;DHT22;8243;49.048;8.396;2023-02-15T06:37:49;0.90;99.90
16271;DHT22;8243;49.048;8.396;2023-02-15T06:40:15;0.80;99.90
16271;DHT22;8243;49.048;8.396;2023-02-15T06:42:42;0.80;99.90
16271;DHT22;8243;49.048;8.396;2023-02-15T06:45:08;0.90;99.90
16271;DHT22;8243;49.048;8.396;2023-02-15T06:47:34;1.00;99.90
16271;DHT22;8243;49.048;8.396;2023-02-15T06:50:00;1.10;99.90
16271;DHT22;8243;49.048;8.396;2023-02-15T06:52:25;0.90;99.90
16271;DHT22;8243;49.048;8.396;2023-02-15T06:54:51;0.90;99.90
16271;DHT22;8243;49.048;8.396;2023-02-15T06:57:17;0.80;99.90
16271;DHT22;8243;49.048;8.396;2023-02-15T06:59:42;1.10;99.90
16271;DHT22;8243;49.048;8.396;2023-02-15T07:02:10;1.00;99.90
16271;DHT22;8243;49.048;8.396;2023-02-15T07:04:36;1.10;99.90
16271;DHT22;8243;49.048;8.396;2023-02-15T07:07:02;1.00;99.90
16271;DHT22;8243;49.048;8.396;2023-02-15T07:09:27;1.10;99.90
16271;DHT22;8243;49.048;8.396;2023-02-15T07:11:53;1.00;99.90
16271;DHT22;8243;49.048;8.396;2023-02-15T07:14:37;1.00;99.90
16271;DHT22;8243;49.048;8.396;2023-02-15T07:17:02;1.10;99.90
16271;DHT22;8243;49.048;8.396;2023-02-15T07:19:28;0.90;99.90
16271;DHT22;8243;49.048;8.396;2023-02-15T07:21:53;1.10;99.90
16271;DHT22;8243;49.048;8.396;2023-02-15T07:24:19;0.90;99.90
16271;DHT22;8243;49.048;8.396;2023-02-15T07:26:44;1.20;99.90
16271;DHT22;8243;49.048;8.396;2023-02-15T07:29:10;1.00;99.90
16271;DHT22;8243;49.048;8.396;2023-02-15T07:31:35;1.00;99.90
16271;DHT22;8243;49.048;8.396;2023-02-15T07:34:01;1.00;99.90
16271;DHT22;8243;49.048;8.396;2023-02-15T07:36:27;1.00;99.90
16271;DHT22;8243;49.048;8.396;2023-02-15T07:38:52;1.00;99.90
16271;DHT22;8243;49.048;8.396;2023-02-15T07:41:18;0.90;99.90
16271;DHT22;8243;49.048;8.396;2023-02-15T07:43:44;1.20;99.90
16271;DHT22;8243;49.048;8.396;2023-02-15T07:46:13;1.30;99.90
16271;DHT22;8243;49.048;8.396;2023-02-15T07:48:39;1.20;99.90
16271;DHT22;8243;49.048;8.396;2023-02-15T07:51:08;1.30;99.90
16271;DHT22;8243;49.048;8.396;2023-02-15T07:53:34;1.10;99.90
16271;DHT22;8243;49.048;8.396;2023-02-15T07:56:02;1.30;99.90
16271;DHT22;8243;49.048;8.396;2023-02-15T07:58:28;1.50;99.90
16271;DHT22;8243;49.048;8.396;2023-02-15T08:01:13;1.50;99.90
16271;DHT22;8243;49.048;8.396;2023-02-15T08:03:39;1.20;99.90
16271;DHT22;8243;49.048;8.396;2023-02-15T08:06:04;1.10;99.90
16271;DHT22;8243;49.048;8.396;2023-02-15T08:08:30;1.30;99.90
16271;DHT22;8243;49.048;8.396;2023-02-15T08:11:03;1.50;99.90
16271;DHT22;8243;49.048;8.396;2023-02-15T08:13:49;1.60;99.90
16271;DHT22;8243;49.048;8.396;2023-02-15T08:19:07;1.50;99.90
16271;DHT22;8243;49.048;8.396;2023-02-15T08:21:33;1.60;99.90
16271;DHT22;8243;49.048;8.396;2023-02-15T08:24:00;1.40;99.90
16271;DHT22;8243;49.048;8.396;2023-02-15T08:26:27;1.70;99.90
16271;DHT22;8243;49.048;8.396;2023-02-15T08:28:53;1.60;99.90
16271;DHT22;8243;49.048;8.396;2023-02-15T08:31:19;1.40;99.90
16271;DHT22;8243;49.048;8.396;2023-02-15T08:33:46;1.70;99.90
16271;DHT22;8243;49.048;8.396;2023-02-15T08:36:15;1.70;99.90
16271;DHT22;8243;49.048;8.396;2023-02-15T08:38:41;1.80;99.90
16271;DHT22;8243;49.048;8.396;2023-02-15T08:41:12;1.60;99.90
16271;DHT22;8243;49.048;8.396;2023-02-15T08:43:38;1.70;99.90
16271;DHT22;8243;49.048;8.396;2023-02-15T08:46:08;1.90;99.90
16271;DHT22;8243;49.048;8.396;2023-02-15T08:48:34;1.90;99.90
16271;DHT22;8243;49.048;8.396;2023-02-15T08:51:13;1.80;99.90
16271;DHT22;8243;49.048;8.396;2023-02-15T08:53:41;1.90;99.90
16271;DHT22;8243;49.048;8.396;2023-02-15T08:56:08;1.90;99.90
16271;DHT22;8243;49.048;8.396;2023-02-15T08:58:34;2.10;99.90
16271;DHT22;8243;49.048;8.396;2023-02-15T09:01:00;1.80;99.90
16271;DHT22;8243;49.048;8.396;2023-02-15T09:03:27;2.00;99.90
16271;DHT22;8243;49.048;8.396;2023-02-15T09:05:59;2.10;99.90
16271;DHT22;8243;49.048;8.396;2023-02-15T09:08:26;2.30;99.90
16271;DHT22;8243;49.048;8.396;2023-02-15T09:10:52;2.30;99.90
16271;DHT22;8243;49.048;8.396;2023-02-15T09:13:17;2.10;99.90
16271;DHT22;8243;49.048;8.396;2023-02-15T09:15:43;2.40;99.90
16271;DHT22;8243;49.048;8.396;2023-02-15T09:18:08;2.40;99.90
16271;DHT22;8243;49.048;8.396;2023-02-15T09:20:37;2.60;99.90
16271;DHT22;8243;49.048;8.396;2023-02-15T09:23:02;2.40;99.90
16271;DHT22;8243;49.048;8.396;2023-02-15T09:25:28;2.80;99.90
16271;DHT22;8243;49.048;8.396;2023-02-15T09:27:54;2.80;99.90
16271;DHT22;8243;49.048;8.396;2023-02-15T09:30:19;2.80;99.90
16271;DHT22;8243;49.048;8.396;2023-02-15T09:32:45;2.80;99.90
16271;DHT22;8243;49.048;8.396;2023-02-15T09:35:11;2.90;99.90
16271;DHT22;8243;49.048;8.396;2023-02-15T09:37:37;2.90;99.90
16271;DHT22;8243;49.048;8.396;2023-02-15T09:40:03;2.70;99.90
16271;DHT22;8243;49.048;8.396;2023-02-15T09:45:16;3.10;99.90
16271;DHT22;8243;49.048;8.396;2023-02-15T09:47:51;2.80;99.90
16271;DHT22;8243;49.048;8.396;2023-02-15T09:50:39;3.00;99.90
16271;DHT22;8243;49.048;8.396;2023-02-15T09:58:43;3.30;99.90
16271;DHT22;8243;49.048;8.396;2023-02-15T10:04:05;3.30;99.90
16271;DHT22;8243;49.048;8.396;2023-02-15T10:09:46;3.40;99.90
16271;DHT22;8243;49.048;8.396;2023-02-15T10:17:52;3.50;99.90
16271;DHT22;8243;49.048;8.396;2023-02-15T10:20:59;3.50;99.90
16271;DHT22;8243;49.048;8.396;2023-02-15T10:23:39;3.40;99.90
16271;DHT22;8243;49.048;8.396;2023-02-15T10:26:25;3.10;99.90
16271;DHT22;8243;49.048;8.396;2023-02-15T10:29:01;3.40;99.90
16271;DHT22;8243;49.048;8.396;2023-02-15T10:32:11;3.30;99.90
16271;DHT22;8243;49.048;8.396;2023-02-15T10:34:37;3.30;99.90
16271;DHT22;8243;49.048;8.396;2023-02-15T10:37:34;3.60;99.90
16271;DHT22;8243;49.048;8.396;2023-02-15T10:40:19;3.80;99.90
16271;DHT22;8243;49.048;8.396;2023-02-15T10:43:14;3.30;99.90
16271;DHT22;8243;49.048;8.396;2023-02-15T10:51:00;3.60;99.90
16271;DHT22;8243;49.048;8.396;2023-02-15T11:01:47;3.90;99.90
16271;DHT22;8243;49.048;8.396;2023-02-15T11:07:02;4.20;99.90
16271;DHT22;8243;49.048;8.396;2023-02-15T11:09:37;4.20;99.90
16271;DHT22;8243;49.048;8.396;2023-02-15T11:12:10;4.30;99.90
16271;DHT22;8243;49.048;8.396;2023-02-15T11:17:33;4.60;99.90
16271;DHT22;8243;49.048;8.396;2023-02-15T11:22:54;4.60;99.90
16271;DHT22;8243;49.048;8.396;2023-02-15T11:25:30;4.50;99.90
16271;DHT22;8243;49.048;8.396;2023-02-15T11:27:56;4.70;99.90
16271;DHT22;8243;49.048;8.396;2023-02-15T11:30:25;4.80;99.90
16271;DHT22;8243;49.048;8.396;2023-02-15T11:32:57;4.20;99.90
16271;DHT22;8243;49.048;8.396;2023-02-15T11:35:36;4.70;99.90
16271;DHT22;8243;49.048;8.396;2023-02-15T11:38:21;4.40;99.90
16271;DHT22;8243;49.048;8.396;2023-02-15T11:41:03;4.80;99.90
16271;DHT22;8243;49.048;8.396;2023-02-15T11:43:59;4.80;99.90
16271;DHT22;8243;49.048;8.396;2023-02-15T11:46:29;4.80;99.90
16271;DHT22;8243;49.048;8.396;2023-02-15T11:48:55;5.00;99.90
16271;DHT22;8243;49.048;8.396;2023-02-15T11:51:22;5.10;99.90
16271;DHT22;8243;49.048;8.396;2023-02-15T11:53:49;5.20;99.90
16271;DHT22;8243;49.048;8.396;2023-02-15T11:56:20;5.30;99.90
16271;DHT22;8243;49.048;8.396;2023-02-15T11:58:58;5.60;99.90
16271;DHT22;8243;49.048;8.396;2023-02-15T12:04:06;5.70;99.90
16271;DHT22;8243;49.048;8.396;2023-02-15T12:06:37;5.70;99.90
16271;DHT22;8243;49.048;8.396;2023-02-15T12:09:20;5.50;99.90
16271;DHT22;8243;49.048;8.396;2023-02-15T12:11:49;5.70;99.90
16271;DHT22;8243;49.048;8.396;2023-02-15T12:14:15;5.80;99.90
16271;DHT22;8243;49.048;8.396;2023-02-15T12:16:50;5.70;99.90
16271;DHT22;8243;49.048;8.396;2023-02-15T12:19:39;6.00;99.70
16271;DHT22;8243;49.048;8.396;2023-02-15T12:22:23;5.90;97.80
16271;DHT22;8243;49.048;8.396;2023-02-15T12:24:51;6.10;97.60
16271;DHT22;8243;49.048;8.396;2023-02-15T12:27:28;6.20;95.70
16271;DHT22;8243;49.048;8.396;2023-02-15T12:30:14;6.20;95.30
16271;DHT22;8243;49.048;8.396;2023-02-15T12:32:52;5.40;96.60
16271;DHT22;8243;49.048;8.396;2023-02-15T12:35:29;5.50;97.60
16271;DHT22;8243;49.048;8.396;2023-02-15T12:40:37;5.30;98.50
16271;DHT22;8243;49.048;8.396;2023-02-15T12:43:03;5.60;96.60
16271;DHT22;8243;49.048;8.396;2023-02-15T12:45:36;5.30;96.50
16271;DHT22;8243;49.048;8.396;2023-02-15T12:48:16;5.20;98.30
16271;DHT22;8243;49.048;8.396;2023-02-15T12:50:49;5.00;97.50
16271;DHT22;8243;49.048;8.396;2023-02-15T12:55:56;4.90;97.60
16271;DHT22;8243;49.048;8.396;2023-02-15T12:58:25;5.50;98.00
16271;DHT22;8243;49.048;8.396;2023-02-15T13:01:10;5.90;96.90
16271;DHT22;8243;49.048;8.396;2023-02-15T13:03:40;6.20;92.60
16271;DHT22;8243;49.048;8.396;2023-02-15T13:06:17;5.00;94.80
16271;DHT22;8243;49.048;8.396;2023-02-15T13:08:48;5.60;95.50
16271;DHT22;8243;49.048;8.396;2023-02-15T13:11:26;5.90;95.20
16271;DHT22;8243;49.048;8.396;2023-02-15T13:13:58;6.10;93.60
16271;DHT22;8243;49.048;8.396;2023-02-15T13:16:39;5.90;92.10
16271;DHT22;8243;49.048;8.396;2023-02-15T13:19:19;5.60;94.40
16271;DHT22;8243;49.048;8.396;2023-02-15T13:21:51;5.80;93.60
16271;DHT22;8243;49.048;8.396;2023-02-15T13:24:25;5.80;96.10
16271;DHT22;8243;49.048;8.396;2023-02-15T13:26:52;6.10;93.40
16271;DHT22;8243;49.048;8.396;2023-02-15T13:29:26;6.00;92.70
16271;DHT22;8243;49.048;8.396;2023-02-15T13:31:54;5.80;92.50
16271;DHT22;8243;49.048;8.396;2023-02-15T13:34:33;5.50;94.00
16271;DHT22;8243;49.048;8.396;2023-02-15T13:40:06;5.50;95.10
16271;DHT22;8243;49.048;8.396;2023-02-15T13:48:41;5.70;93.20
16271;DHT22;8243;49.048;8.396;2023-02-15T13:51:30;5.60;93.80
16271;DHT22;8243;49.048;8.396;2023-02-15T13:56:54;6.00;94.50
16271;DHT22;8243;49.048;8.396;2023-02-15T14:00:28;6.10;91.80
16271;DHT22;8243;49.048;8.396;2023-02-15T14:02:51;5.60;92.60
16271;DHT22;8243;49.048;8.396;2023-02-15T14:13:44;6.00;92.60
16271;DHT22;8243;49.048;8.396;2023-02-15T14:16:20;6.20;90.40
16271;DHT22;8243;49.048;8.396;2023-02-15T14:22:05;6.20;90.00
16271;DHT22;8243;49.048;8.396;2023-02-15T14:24:44;6.10;89.50
16271;DHT22;8243;49.048;8.396;2023-02-15T14:27:18;6.10;89.50
16271;DHT22;8243;49.048;8.396;2023-02-15T14:29:57;6.00;89.50
16271;DHT22;8243;49.048;8.396;2023-02-15T14:32:33;5.70;90.60
16271;DHT22;8243;49.048;8.396;2023-02-15T14:35:03;5.90;90.70
16271;DHT22;8243;49.048;8.396;2023-02-15T14:37:54;6.20;89.20
16271;DHT22;8243;49.048;8.396;2023-02-15T14:40:49;6.20;87.40
16271;DHT22;8243;49.048;8.396;2023-02-15T14:43:46;6.20;86.60
16271;DHT22;8243;49.048;8.396;2023-02-15T14:46:25;6.20;86.60
16271;DHT22;8243;49.048;8.396;2023-02-15T14:48:59;6.10;87.30
16271;DHT22;8243;49.048;8.396;2023-02-15T14:59:46;6.00;87.70
16271;DHT22;8243;49.048;8.396;2023-02-15T15:02:15;5.90;88.70
16271;DHT22;8243;49.048;8.396;2023-02-15T15:04:54;6.10;89.10
16271;DHT22;8243;49.048;8.396;2023-02-15T15:07:25;6.20;87.60
16271;DHT22;8243;49.048;8.396;2023-02-15T15:10:07;6.30;85.50
16271;DHT22;8243;49.048;8.396;2023-02-15T15:12:58;6.50;85.20
16271;DHT22;8243;49.048;8.396;2023-02-15T15:15:46;6.30;82.60
16271;DHT22;8243;49.048;8.396;2023-02-15T15:18:47;6.30;82.60
16271;DHT22;8243;49.048;8.396;2023-02-15T15:38:33;6.70;76.50
16271;DHT22;8243;49.048;8.396;2023-02-15T15:46:46;6.70;75.20
16271;DHT22;8243;49.048;8.396;2023-02-15T15:49:18;6.80;74.50
16271;DHT22;8243;49.048;8.396;2023-02-15T15:51:45;6.70;74.80
16271;DHT22;8243;49.048;8.396;2023-02-15T15:54:23;6.70;74.50
16271;DHT22;8243;49.048;8.396;2023-02-15T15:56:55;6.60;74.90
16271;DHT22;8243;49.048;8.396;2023-02-15T15:59:25;6.60;75.10
16271;DHT22;8243;49.048;8.396;2023-02-15T16:01:51;6.50;75.30
16271;DHT22;8243;49.048;8.396;2023-02-15T16:04:25;6.30;76.80
16271;DHT22;8243;49.048;8.396;2023-02-15T16:06:51;6.00;80.10
16271;DHT22;8243;49.048;8.396;2023-02-15T16:09:23;5.90;81.70
16271;DHT22;8243;49.048;8.396;2023-02-15T16:11:59;5.90;82.50
16271;DHT22;8243;49.048;8.396;2023-02-15T16:14:37;5.80;83.50
16271;DHT22;8243;49.048;8.396;2023-02-15T16:17:07;5.80;83.10
16271;DHT22;8243;49.048;8.396;2023-02-15T16:19:38;5.70;83.40
16271;DHT22;8243;49.048;8.396;2023-02-15T16:22:18;5.60;83.80
16271;DHT22;8243;49.048;8.396;2023-02-15T16:29:47;4.80;90.80
16271;DHT22;8243;49.048;8.396;2023-02-15T16:32:22;5.00;92.30
16271;DHT22;8243;49.048;8.396;2023-02-15T16:37:22;4.70;96.80
16271;DHT22;8243;49.048;8.396;2023-02-15T16:39:49;4.90;99.10
16271;DHT22;8243;49.048;8.396;2023-02-15T16:42:16;4.50;99.90
16271;DHT22;8243;49.048;8.396;2023-02-15T16:44:43;4.50;99.90
16271;DHT22;8243;49.048;8.396;2023-02-15T16:47:16;4.40;99.90
16271;DHT22;8243;49.048;8.396;2023-02-15T16:49:48;4.40;99.90
16271;DHT22;8243;49.048;8.396;2023-02-15T16:52:22;4.20;99.90
16271;DHT22;8243;49.048;8.396;2023-02-15T16:55:00;4.10;99.90
16271;DHT22;8243;49.048;8.396;2023-02-15T16:57:32;4.10;99.90
16271;DHT22;8243;49.048;8.396;2023-02-15T17:00:07;4.00;99.90
16271;DHT22;8243;49.048;8.396;2023-02-15T17:02:34;4.00;99.90
16271;DHT22;8243;49.048;8.396;2023-02-15T17:08:19;3.90;99.90
16271;DHT22;8243;49.048;8.396;2023-02-15T17:11:34;3.80;99.90
16271;DHT22;8243;49.048;8.396;2023-02-15T17:16:50;3.60;99.90
16271;DHT22;8243;49.048;8.396;2023-02-15T17:19:24;3.40;99.90
16271;DHT22;8243;49.048;8.396;2023-02-15T17:24:43;3.30;99.90
16271;DHT22;8243;49.048;8.396;2023-02-15T17:27:28;3.40;99.90
16271;DHT22;8243;49.048;8.396;2023-02-15T17:29:58;3.10;99.90
16271;DHT22;8243;49.048;8.396;2023-02-15T17:32:26;3.00;99.90
16271;DHT22;8243;49.048;8.396;2023-02-15T17:37:32;2.90;99.90
16271;DHT22;8243;49.048;8.396;2023-02-15T17:40:27;2.70;99.90
16271;DHT22;8243;49.048;8.396;2023-02-15T17:42:53;2.80;99.90
16271;DHT22;8243;49.048;8.396;2023-02-15T17:45:20;2.40;99.90
16271;DHT22;8243;49.048;8.396;2023-02-15T17:47:47;2.20;99.90
16271;DHT22;8243;49.048;8.396;2023-02-15T17:50:22;2.10;99.90
16271;DHT22;8243;49.048;8.396;2023-02-15T17:52:48;2.10;99.90
16271;DHT22;8243;49.048;8.396;2023-02-15T17:55:17;2.20;99.90
16271;DHT22;8243;49.048;8.396;2023-02-15T17:58:11;2.30;99.90
16271;DHT22;8243;49.048;8.396;2023-02-15T18:00:42;2.30;99.90
16271;DHT22;8243;49.048;8.396;2023-02-15T18:03:44;2.00;99.90
16271;DHT22;8243;49.048;8.396;2023-02-15T18:06:29;2.00;99.90
16271;DHT22;8243;49.048;8.396;2023-02-15T18:09:17;2.00;99.90
16271;DHT22;8243;49.048;8.396;2023-02-15T18:12:04;1.90;99.90
16271;DHT22;8243;49.048;8.396;2023-02-15T18:14:38;2.00;99.90
16271;DHT22;8243;49.048;8.396;2023-02-15T18:17:03;1.90;99.90
16271;DHT22;8243;49.048;8.396;2023-02-15T18:19:30;1.70;99.90
16271;DHT22;8243;49.048;8.396;2023-02-15T18:21:56;1.60;99.90
16271;DHT22;8243;49.048;8.396;2023-02-15T18:24:24;1.70;99.90
16271;DHT22;8243;49.048;8.396;2023-02-15T18:26:54;1.90;99.90
16271;DHT22;8243;49.048;8.396;2023-02-15T18:29:20;1.80;99.90
16271;DHT22;8243;49.048;8.396;2023-02-15T18:31:50;1.70;99.90
16271;DHT22;8243;49.048;8.396;2023-02-15T18:34:28;1.40;99.90
16271;DHT22;8243;49.048;8.396;2023-02-15T18:36:55;1.50;99.90
16271;DHT22;8243;49.048;8.396;2023-02-15T18:39:40;1.10;99.90
16271;DHT22;8243;49.048;8.396;2023-02-15T18:44:46;1.10;99.90
16271;DHT22;8243;49.048;8.396;2023-02-15T18:47:12;1.20;99.90
16271;DHT22;8243;49.048;8.396;2023-02-15T18:49:37;1.20;99.90
16271;DHT22;8243;49.048;8.396;2023-02-15T18:52:03;1.10;99.90
16271;DHT22;8243;49.048;8.396;2023-02-15T18:54:29;0.90;99.90
16271;DHT22;8243;49.048;8.396;2023-02-15T18:56:56;1.00;99.90
16271;DHT22;8243;49.048;8.396;2023-02-15T18:59:23;0.80;99.90
16271;DHT22;8243;49.048;8.396;2023-02-15T19:01:50;1.00;99.90
16271;DHT22;8243;49.048;8.396;2023-02-15T19:04:16;1.10;99.90